sensor_id;sensor_type;location;lat;lon;timestamp;temperature;humidity
35363;DHT22;21463;47.480;8.214;2023-11-19T00:00:49;21.20;44.90
35363;DHT22;21463;47.480;8.214;2023-11-19T00:01:57;21.00;44.80
35363;DHT22;21463;47.480;8.214;2023-11-19T00:03:02;21.00;44.80
35363;DHT22;21463;47.480;8.214;2023-11-19T00:04:07;21.00;44.80
35363;DHT22;21463;47.480;8.214;2023-11-19T00:05:20;21.00;44.80
35363;DHT22;21463;47.480;8.214;2023-11-19T00:06:28;21.00;44.80
35363;DHT22;21463;47.480;8.214;2023-11-19T00:07:35;21.00;44.80
35363;DHT22;21463;47.480;8.214;2023-11-19T00:08:44;21.00;44.80
35363;DHT22;21463;47.480;8.214;2023-11-19T00:09:55;21.00;44.80
35363;DHT22;21463;47.480;8.214;2023-11-19T00:10:58;21.10;44.90
35363;DHT22;21463;47.480;8.214;2023-11-19T00:12:06;21.00;44.80
35363;DHT22;21463;47.480;8.214;2023-11-19T00:13:14;21.10;44.90
35363;DHT22;21463;47.480;8.214;2023-11-19T00:14:18;21.00;44.90
35363;DHT22;21463;47.480;8.214;2023-11-19T00:15:22;21.00;44.80
35363;DHT22;21463;47.480;8.214;2023-11-19T00:16:27;21.10;45.50
35363;DHT22;21463;47.480;8.214;2023-11-19T00:17:31;21.00;44.80
35363;DHT22;21463;47.480;8.214;2023-11-19T00:18:37;21.00;44.80
35363;DHT22;21463;47.480;8.214;2023-11-19T00:19:42;21.10;44.90
35363;DHT22;21463;47.480;8.214;2023-11-19T00:20:45;21.00;44.80
35363;DHT22;21463;47.480;8.214;2023-11-19T00:21:50;21.00;44.80
35363;DHT22;21463;47.480;8.214;2023-11-19T00:22:57;21.00;44.90
35363;DHT22;21463;47.480;8.214;2023-11-19T00:24:02;21.00;44.90
35363;DHT22;21463;47.480;8.214;2023-11-19T00:25:07;21.00;44.80
35363;DHT22;21463;47.480;8.214;2023-11-19T00:26:21;21.00;44.80
35363;DHT22;21463;47.480;8.214;2023-11-19T00:27:29;21.10;44.90
35363;DHT22;21463;47.480;8.214;2023-11-19T00:28:33;21.00;44.80
35363;DHT22;21463;47.480;8.214;2023-11-19T00:29:44;21.00;44.90
35363;DHT22;21463;47.480;8.214;2023-11-19T00:30:48;21.00;44.90
35363;DHT22;21463;47.480;8.214;2023-11-19T00:31:52;21.00;44.90
35363;DHT22;21463;47.480;8.214;2023-11-19T00:32:56;21.00;44.90
35363;DHT22;21463;47.480;8.214;2023-11-19T00:34:02;21.00;44.90
35363;DHT22;21463;47.480;8.214;2023-11-19T00:35:06;21.00;44.90
35363;DHT22;21463;47.480;8.214;2023-11-19T00:36:11;21.00;44.90
35363;DHT22;21463;47.480;8.214;2023-11-19T00:37:28;21.00;44.90
35363;DHT22;21463;47.480;8.214;2023-11-19T00:38:35;21.00;44.90
35363;DHT22;21463;47.480;8.214;2023-11-19T00:39:41;21.00;44.90
35363;DHT22;21463;47.480;8.214;2023-11-19T00:40:45;21.00;44.90
35363;DHT22;21463;47.480;8.214;2023-11-19T00:41:51;21.00;44.90
35363;DHT22;21463;47.480;8.214;2023-11-19T00:42:55;21.00;44.90
35363;DHT22;21463;47.480;8.214;2023-11-19T00:44:14;21.00;44.90
35363;DHT22;21463;47.480;8.214;2023-11-19T00:45:20;21.00;44.90
35363;DHT22;21463;47.480;8.214;2023-11-19T00:46:28;21.00;44.90
35363;DHT22;21463;47.480;8.214;2023-11-19T00:47:34;21.00;44.90
35363;DHT22;21463;47.480;8.214;2023-11-19T00:48:44;21.00;45.00
35363;DHT22;21463;47.480;8.214;2023-11-19T00:50:11;21.00;44.90
35363;DHT22;21463;47.480;8.214;2023-11-19T00:51:21;21.00;45.00
35363;DHT22;21463;47.480;8.214;2023-11-19T00:52:26;21.00;45.00
35363;DHT22;21463;47.480;8.214;2023-11-19T00:53:32;21.00;44.90
35363;DHT22;21463;47.480;8.214;2023-11-19T00:54:40;21.00;45.00
35363;DHT22;21463;47.480;8.214;2023-11-19T00:55:47;21.00;45.00
35363;DHT22;21463;47.480;8.214;2023-11-19T00:56:55;21.00;45.00
35363;DHT22;21463;47.480;8.214;2023-11-19T00:58:02;21.00;45.00
35363;DHT22;21463;47.480;8.214;2023-11-19T00:59:06;21.00;45.00
35363;DHT22;21463;47.480;8.214;2023-11-19T01:00:12;21.00;45.00
35363;DHT22;21463;47.480;8.214;2023-11-19T01:01:23;21.00;45.00
35363;DHT22;21463;47.480;8.214;2023-11-19T01:02:28;21.00;45.00
35363;DHT22;21463;47.480;8.214;2023-11-19T01:03:33;21.10;45.00
35363;DHT22;21463;47.480;8.214;2023-11-19T01:04:37;21.00;45.00
35363;DHT22;21463;47.480;8.214;2023-11-19T01:05:43;21.00;45.00
35363;DHT22;21463;47.480;8.214;2023-11-19T01:06:48;21.10;45.00
35363;DHT22;21463;47.480;8.214;2023-11-19T01:07:51;21.00;45.00
35363;DHT22;21463;47.480;8.214;2023-11-19T01:08:58;21.00;45.00
35363;DHT22;21463;47.480;8.214;2023-11-19T01:10:06;21.00;45.00
35363;DHT22;21463;47.480;8.214;2023-11-19T01:11:20;21.00;45.00
35363;DHT22;21463;47.480;8.214;2023-11-19T01:12:29;21.00;45.00
35363;DHT22;21463;47.480;8.214;2023-11-19T01:13:37;21.00;45.00
35363;DHT22;21463;47.480;8.214;2023-11-19T01:14:45;21.00;45.00
35363;DHT22;21463;47.480;8.214;2023-11-19T01:16:05;21.00;45.00
35363;DHT22;21463;47.480;8.214;2023-11-19T01:17:16;21.10;45.00
35363;DHT22;21463;47.480;8.214;2023-11-19T01:18:22;21.10;45.00
35363;DHT22;21463;47.480;8.214;2023-11-19T01:19:41;21.00;45.00
35363;DHT22;21463;47.480;8.214;2023-11-19T01:20:55;21.00;45.00
35363;DHT22;21463;47.480;8.214;2023-11-19T01:22:03;21.10;45.00
35363;DHT22;21463;47.480;8.214;2023-11-19T01:23:23;20.80;44.90
35363;DHT22;21463;47.480;8.214;2023-11-19T01:24:27;21.00;45.00
35363;DHT22;21463;47.480;8.214;2023-11-19T01:25:32;21.00;45.00
35363;DHT22;21463;47.480;8.214;2023-11-19T01:26:42;21.00;45.00
35363;DHT22;21463;47.480;8.214;2023-11-19T01:28:06;21.10;45.00
35363;DHT22;21463;47.480;8.214;2023-11-19T01:29:23;21.00;45.00
35363;DHT22;21463;47.480;8.214;2023-11-19T01:30:28;21.00;45.00
35363;DHT22;21463;47.480;8.214;2023-11-19T01:31:32;21.00;45.00
35363;DHT22;21463;47.480;8.214;2023-11-19T01:32:41;21.10;45.00
35363;DHT22;21463;47.480;8.214;2023-11-19T01:33:50;21.00;45.00
35363;DHT22;21463;47.480;8.214;2023-11-19T01:35:02;21.00;45.00
35363;DHT22;21463;47.480;8.214;2023-11-19T01:36:06;21.10;45.00
35363;DHT22;21463;47.480;8.214;2023-11-19T01:37:11;21.00;45.00
35363;DHT22;21463;47.480;8.214;2023-11-19T01:38:17;21.00;45.00
35363;DHT22;21463;47.480;8.214;2023-11-19T01:39:22;21.10;45.00
35363;DHT22;21463;47.480;8.214;2023-11-19T01:40:40;21.00;45.00
35363;DHT22;21463;47.480;8.214;2023-11-19T01:41:56;21.00;45.00
35363;DHT22;21463;47.480;8.214;2023-11-19T01:43:02;21.00;45.00
35363;DHT22;21463;47.480;8.214;2023-11-19T01:44:07;21.00;45.10
35363;DHT22;21463;47.480;8.214;2023-11-19T01:45:21;21.00;45.00
35363;DHT22;21463;47.480;8.214;2023-11-19T01:46:42;21.00;45.00
35363;DHT22;21463;47.480;8.214;2023-11-19T01:47:59;21.00;45.00
35363;DHT22;21463;47.480;8.214;2023-11-19T01:49:07;21.00;45.10
35363;DHT22;21463;47.480;8.214;2023-11-19T01:50:14;21.00;45.00
35363;DHT22;21463;47.480;8.214;2023-11-19T01:51:19;21.00;45.00
35363;DHT22;21463;47.480;8.214;2023-11-19T01:52:26;21.00;45.00
35363;DHT22;21463;47.480;8.214;2023-11-19T01:53:36;21.00;45.10
35363;DHT22;21463;47.480;8.214;2023-11-19T01:54:47;21.00;45.00
35363;DHT22;21463;47.480;8.214;2023-11-19T01:55:55;21.00;45.00
35363;DHT22;21463;47.480;8.214;2023-11-19T01:57:03;21.00;45.00
35363;DHT22;21463;47.480;8.214;2023-11-19T01:58:14;21.00;45.00
35363;DHT22;21463;47.480;8.214;2023-11-19T01:59:18;21.00;45.00
35363;DHT22;21463;47.480;8.214;2023-11-19T02:00:26;21.00;45.00
35363;DHT22;21463;47.480;8.214;2023-11-19T02:01:31;21.00;45.10
35363;DHT22;21463;47.480;8.214;2023-11-19T02:02:40;21.00;45.00
35363;DHT22;21463;47.480;8.214;2023-11-19T02:03:46;21.10;45.10
35363;DHT22;21463;47.480;8.214;2023-11-19T02:04:51;21.00;45.10
35363;DHT22;21463;47.480;8.214;2023-11-19T02:05:56;21.00;45.10
35363;DHT22;21463;47.480;8.214;2023-11-19T02:07:01;21.00;45.10
35363;DHT22;21463;47.480;8.214;2023-11-19T02:08:07;21.00;45.10
35363;DHT22;21463;47.480;8.214;2023-11-19T02:09:10;21.00;45.10
35363;DHT22;21463;47.480;8.214;2023-11-19T02:10:17;21.10;45.10
35363;DHT22;21463;47.480;8.214;2023-11-19T02:11:22;21.00;45.10
35363;DHT22;21463;47.480;8.214;2023-11-19T02:12:33;21.10;45.10
35363;DHT22;21463;47.480;8.214;2023-11-19T02:13:39;21.00;45.10
35363;DHT22;21463;47.480;8.214;2023-11-19T02:14:45;21.00;45.10
35363;DHT22;21463;47.480;8.214;2023-11-19T02:15:50;21.10;45.10
35363;DHT22;21463;47.480;8.214;2023-11-19T02:16:55;21.00;45.10
35363;DHT22;21463;47.480;8.214;2023-11-19T02:18:16;21.00;45.10
35363;DHT22;21463;47.480;8.214;2023-11-19T02:19:21;21.00;45.10
35363;DHT22;21463;47.480;8.214;2023-11-19T02:20:26;21.00;45.10
35363;DHT22;21463;47.480;8.214;2023-11-19T02:21:29;21.00;45.10
35363;DHT22;21463;47.480;8.214;2023-11-19T02:22:32;21.00;45.10
35363;DHT22;21463;47.480;8.214;2023-11-19T02:23:37;21.00;45.10
35363;DHT22;21463;47.480;8.214;2023-11-19T02:24:44;21.00;45.10
35363;DHT22;21463;47.480;8.214;2023-11-19T02:28:49;21.00;45.10
35363;DHT22;21463;47.480;8.214;2023-11-19T02:29:55;21.10;45.20
35363;DHT22;21463;47.480;8.214;2023-11-19T02:30:59;21.00;45.10
35363;DHT22;21463;47.480;8.214;2023-11-19T02:32:03;21.00;45.10
35363;DHT22;21463;47.480;8.214;2023-11-19T02:33:10;21.00;45.10
35363;DHT22;21463;47.480;8.214;2023-11-19T02:34:16;21.00;45.10
35363;DHT22;21463;47.480;8.214;2023-11-19T02:35:21;21.10;45.20
35363;DHT22;21463;47.480;8.214;2023-11-19T02:36:26;21.00;45.10
35363;DHT22;21463;47.480;8.214;2023-11-19T02:37:34;21.00;45.20
35363;DHT22;21463;47.480;8.214;2023-11-19T02:38:37;21.00;45.20
35363;DHT22;21463;47.480;8.214;2023-11-19T02:39:42;21.00;45.20
35363;DHT22;21463;47.480;8.214;2023-11-19T02:40:49;21.00;45.10
35363;DHT22;21463;47.480;8.214;2023-11-19T02:41:54;21.00;45.10
35363;DHT22;21463;47.480;8.214;2023-11-19T02:42:59;21.00;45.10
35363;DHT22;21463;47.480;8.214;2023-11-19T02:44:06;21.00;45.20
35363;DHT22;21463;47.480;8.214;2023-11-19T02:45:17;21.00;45.20
35363;DHT22;21463;47.480;8.214;2023-11-19T02:46:37;21.00;45.10
35363;DHT22;21463;47.480;8.214;2023-11-19T02:47:44;21.00;45.20
35363;DHT22;21463;47.480;8.214;2023-11-19T02:48:50;21.10;45.20
35363;DHT22;21463;47.480;8.214;2023-11-19T02:49:56;21.00;45.20
35363;DHT22;21463;47.480;8.214;2023-11-19T02:51:04;20.90;45.10
35363;DHT22;21463;47.480;8.214;2023-11-19T02:52:08;21.00;45.20
35363;DHT22;21463;47.480;8.214;2023-11-19T02:53:26;21.20;45.30
35363;DHT22;21463;47.480;8.214;2023-11-19T02:54:36;21.00;45.20
35363;DHT22;21463;47.480;8.214;2023-11-19T02:55:47;21.00;45.20
35363;DHT22;21463;47.480;8.214;2023-11-19T02:56:53;21.00;45.20
35363;DHT22;21463;47.480;8.214;2023-11-19T02:58:01;21.00;45.20
35363;DHT22;21463;47.480;8.214;2023-11-19T02:59:14;21.10;45.20
35363;DHT22;21463;47.480;8.214;2023-11-19T03:00:31;21.00;45.20
35363;DHT22;21463;47.480;8.214;2023-11-19T03:01:43;21.00;45.20
35363;DHT22;21463;47.480;8.214;2023-11-19T03:02:52;21.00;45.20
35363;DHT22;21463;47.480;8.214;2023-11-19T03:04:15;21.00;45.20
35363;DHT22;21463;47.480;8.214;2023-11-19T03:05:27;21.00;45.20
35363;DHT22;21463;47.480;8.214;2023-11-19T03:06:38;21.00;45.30
35363;DHT22;21463;47.480;8.214;2023-11-19T03:07:45;21.00;45.20
35363;DHT22;21463;47.480;8.214;2023-11-19T03:08:54;21.00;45.20
35363;DHT22;21463;47.480;8.214;2023-11-19T03:09:59;21.00;45.20
35363;DHT22;21463;47.480;8.214;2023-11-19T03:11:02;21.00;45.20
35363;DHT22;21463;47.480;8.214;2023-11-19T03:12:08;21.00;45.20
35363;DHT22;21463;47.480;8.214;2023-11-19T03:13:13;21.00;45.20
35363;DHT22;21463;47.480;8.214;2023-11-19T03:14:18;20.90;45.10
35363;DHT22;21463;47.480;8.214;2023-11-19T03:15:24;21.10;45.20
35363;DHT22;21463;47.480;8.214;2023-11-19T03:16:45;21.00;45.20
35363;DHT22;21463;47.480;8.214;2023-11-19T03:17:52;21.00;45.20
35363;DHT22;21463;47.480;8.214;2023-11-19T03:18:57;21.00;45.20
35363;DHT22;21463;47.480;8.214;2023-11-19T03:20:04;21.00;45.20
35363;DHT22;21463;47.480;8.214;2023-11-19T03:21:09;21.00;45.20
35363;DHT22;21463;47.480;8.214;2023-11-19T03:22:14;21.00;45.20
35363;DHT22;21463;47.480;8.214;2023-11-19T03:23:20;21.00;45.20
35363;DHT22;21463;47.480;8.214;2023-11-19T03:24:26;21.00;45.20
35363;DHT22;21463;47.480;8.214;2023-11-19T03:25:30;21.00;45.20
35363;DHT22;21463;47.480;8.214;2023-11-19T03:26:37;21.00;45.30
35363;DHT22;21463;47.480;8.214;2023-11-19T03:27:44;21.00;45.20
35363;DHT22;21463;47.480;8.214;2023-11-19T03:28:49;21.00;45.30
35363;DHT22;21463;47.480;8.214;2023-11-19T03:29:53;21.00;45.30
35363;DHT22;21463;47.480;8.214;2023-11-19T03:31:12;21.00;45.30
35363;DHT22;21463;47.480;8.214;2023-11-19T03:32:18;21.00;45.20
35363;DHT22;21463;47.480;8.214;2023-11-19T03:33:23;21.00;45.20
35363;DHT22;21463;47.480;8.214;2023-11-19T03:34:30;21.00;45.20
35363;DHT22;21463;47.480;8.214;2023-11-19T03:35:35;21.00;45.20
35363;DHT22;21463;47.480;8.214;2023-11-19T03:36:43;21.00;45.20
35363;DHT22;21463;47.480;8.214;2023-11-19T03:37:54;21.00;45.20
35363;DHT22;21463;47.480;8.214;2023-11-19T03:39:00;21.00;45.30
35363;DHT22;21463;47.480;8.214;2023-11-19T03:40:05;20.90;45.20
35363;DHT22;21463;47.480;8.214;2023-11-19T03:41:13;21.00;45.30
35363;DHT22;21463;47.480;8.214;2023-11-19T03:42:22;21.00;45.30
35363;DHT22;21463;47.480;8.214;2023-11-19T03:43:28;21.00;45.30
35363;DHT22;21463;47.480;8.214;2023-11-19T03:44:31;21.00;45.30
35363;DHT22;21463;47.480;8.214;2023-11-19T03:45:37;21.00;45.30
35363;DHT22;21463;47.480;8.214;2023-11-19T03:46:46;21.00;45.30
35363;DHT22;21463;47.480;8.214;2023-11-19T03:47:50;21.00;45.30
35363;DHT22;21463;47.480;8.214;2023-11-19T03:48:55;21.00;45.30
35363;DHT22;21463;47.480;8.214;2023-11-19T03:49:59;21.00;45.30
35363;DHT22;21463;47.480;8.214;2023-11-19T03:51:07;21.00;45.30
35363;DHT22;21463;47.480;8.214;2023-11-19T03:52:13;21.00;45.30
35363;DHT22;21463;47.480;8.214;2023-11-19T03:53:24;21.00;45.30
35363;DHT22;21463;47.480;8.214;2023-11-19T03:54:30;21.00;45.30
35363;DHT22;21463;47.480;8.214;2023-11-19T03:55:33;21.00;45.30
35363;DHT22;21463;47.480;8.214;2023-11-19T03:56:38;21.00;45.30
35363;DHT22;21463;47.480;8.214;2023-11-19T03:57:42;21.00;45.30
35363;DHT22;21463;47.480;8.214;2023-11-19T03:58:48;21.00;45.30
35363;DHT22;21463;47.480;8.214;2023-11-19T03:59:56;20.80;45.20
35363;DHT22;21463;47.480;8.214;2023-11-19T04:01:14;21.00;45.30
35363;DHT22;21463;47.480;8.214;2023-11-19T04:02:21;21.00;45.30
35363;DHT22;21463;47.480;8.214;2023-11-19T04:03:30;21.10;45.30
35363;DHT22;21463;47.480;8.214;2023-11-19T04:04:34;21.00;45.30
35363;DHT22;21463;47.480;8.214;2023-11-19T04:05:39;21.00;45.30
35363;DHT22;21463;47.480;8.214;2023-11-19T04:06:48;21.00;45.30
35363;DHT22;21463;47.480;8.214;2023-11-19T04:07:51;21.10;45.40
35363;DHT22;21463;47.480;8.214;2023-11-19T04:08:56;21.00;45.30
35363;DHT22;21463;47.480;8.214;2023-11-19T04:10:02;21.10;45.40
35363;DHT22;21463;47.480;8.214;2023-11-19T04:11:05;21.00;45.30
35363;DHT22;21463;47.480;8.214;2023-11-19T04:12:14;21.00;45.30
35363;DHT22;21463;47.480;8.214;2023-11-19T04:13:18;21.00;45.40
35363;DHT22;21463;47.480;8.214;2023-11-19T04:14:24;21.00;45.30
35363;DHT22;21463;47.480;8.214;2023-11-19T04:15:31;21.00;45.30
35363;DHT22;21463;47.480;8.214;2023-11-19T04:16:46;21.10;45.40
35363;DHT22;21463;47.480;8.214;2023-11-19T04:17:51;21.10;45.40
35363;DHT22;21463;47.480;8.214;2023-11-19T04:18:56;21.00;45.40
35363;DHT22;21463;47.480;8.214;2023-11-19T04:20:01;21.00;45.40
35363;DHT22;21463;47.480;8.214;2023-11-19T04:21:07;21.00;45.30
35363;DHT22;21463;47.480;8.214;2023-11-19T04:22:15;21.00;45.30
35363;DHT22;21463;47.480;8.214;2023-11-19T04:23:20;21.00;45.40
35363;DHT22;21463;47.480;8.214;2023-11-19T04:24:23;20.90;45.30
35363;DHT22;21463;47.480;8.214;2023-11-19T04:25:29;21.00;45.40
35363;DHT22;21463;47.480;8.214;2023-11-19T04:26:33;21.00;45.40
35363;DHT22;21463;47.480;8.214;2023-11-19T04:27:45;21.00;45.40
35363;DHT22;21463;47.480;8.214;2023-11-19T04:28:53;21.10;45.50
35363;DHT22;21463;47.480;8.214;2023-11-19T04:29:56;21.20;45.50
35363;DHT22;21463;47.480;8.214;2023-11-19T04:31:01;21.00;45.40
35363;DHT22;21463;47.480;8.214;2023-11-19T04:32:10;21.10;45.40
35363;DHT22;21463;47.480;8.214;2023-11-19T04:33:15;21.00;45.40
35363;DHT22;21463;47.480;8.214;2023-11-19T04:34:20;21.00;45.40
35363;DHT22;21463;47.480;8.214;2023-11-19T04:35:24;21.10;45.40
35363;DHT22;21463;47.480;8.214;2023-11-19T04:36:31;21.10;45.50
35363;DHT22;21463;47.480;8.214;2023-11-19T04:37:37;21.00;45.40
35363;DHT22;21463;47.480;8.214;2023-11-19T04:38:41;21.00;45.40
35363;DHT22;21463;47.480;8.214;2023-11-19T04:39:58;21.10;45.50
35363;DHT22;21463;47.480;8.214;2023-11-19T04:41:04;21.00;45.40
35363;DHT22;21463;47.480;8.214;2023-11-19T04:42:09;21.10;45.50
35363;DHT22;21463;47.480;8.214;2023-11-19T04:43:16;21.00;45.40
35363;DHT22;21463;47.480;8.214;2023-11-19T04:44:24;21.00;45.40
35363;DHT22;21463;47.480;8.214;2023-11-19T04:45:36;21.00;45.40
35363;DHT22;21463;47.480;8.214;2023-11-19T04:46:40;21.00;45.40
35363;DHT22;21463;47.480;8.214;2023-11-19T04:47:46;21.00;45.40
35363;DHT22;21463;47.480;8.214;2023-11-19T04:48:53;20.90;45.30
35363;DHT22;21463;47.480;8.214;2023-11-19T04:50:02;21.00;45.40
35363;DHT22;21463;47.480;8.214;2023-11-19T04:51:10;21.00;45.40
35363;DHT22;21463;47.480;8.214;2023-11-19T04:52:15;21.10;45.50
35363;DHT22;21463;47.480;8.214;2023-11-19T04:53:18;21.00;45.40
35363;DHT22;21463;47.480;8.214;2023-11-19T04:54:25;21.00;45.40
35363;DHT22;21463;47.480;8.214;2023-11-19T04:55:30;21.00;45.40
35363;DHT22;21463;47.480;8.214;2023-11-19T04:56:35;21.00;45.50
35363;DHT22;21463;47.480;8.214;2023-11-19T04:57:40;21.00;45.40
35363;DHT22;21463;47.480;8.214;2023-11-19T04:58:45;21.00;45.40
35363;DHT22;21463;47.480;8.214;2023-11-19T05:00:04;21.10;45.50
35363;DHT22;21463;47.480;8.214;2023-11-19T05:01:15;21.00;45.40
35363;DHT22;21463;47.480;8.214;2023-11-19T05:02:21;21.00;45.40
35363;DHT22;21463;47.480;8.214;2023-11-19T05:03:26;21.00;45.40
35363;DHT22;21463;47.480;8.214;2023-11-19T05:04:31;21.00;45.40
35363;DHT22;21463;47.480;8.214;2023-11-19T05:05:34;20.90;45.40
35363;DHT22;21463;47.480;8.214;2023-11-19T05:06:39;21.00;45.40
35363;DHT22;21463;47.480;8.214;2023-11-19T05:07:41;21.00;45.50
35363;DHT22;21463;47.480;8.214;2023-11-19T05:08:52;21.00;45.50
35363;DHT22;21463;47.480;8.214;2023-11-19T05:09:58;21.10;45.50
35363;DHT22;21463;47.480;8.214;2023-11-19T05:11:03;21.00;45.40
35363;DHT22;21463;47.480;8.214;2023-11-19T05:12:10;21.00;45.40
35363;DHT22;21463;47.480;8.214;2023-11-19T05:13:15;21.10;45.50
35363;DHT22;21463;47.480;8.214;2023-11-19T05:14:38;21.00;46.00
35363;DHT22;21463;47.480;8.214;2023-11-19T05:15:42;21.00;45.50
35363;DHT22;21463;47.480;8.214;2023-11-19T05:16:45;20.90;45.40
35363;DHT22;21463;47.480;8.214;2023-11-19T05:17:49;21.00;45.50
35363;DHT22;21463;47.480;8.214;2023-11-19T05:18:56;21.00;45.50
35363;DHT22;21463;47.480;8.214;2023-11-19T05:20:01;21.00;45.50
35363;DHT22;21463;47.480;8.214;2023-11-19T05:21:07;20.90;45.40
35363;DHT22;21463;47.480;8.214;2023-11-19T05:22:12;21.00;45.50
35363;DHT22;21463;47.480;8.214;2023-11-19T05:23:18;21.00;45.50
35363;DHT22;21463;47.480;8.214;2023-11-19T05:24:24;21.00;45.50
35363;DHT22;21463;47.480;8.214;2023-11-19T05:25:32;21.00;45.50
35363;DHT22;21463;47.480;8.214;2023-11-19T05:26:38;21.00;45.50
35363;DHT22;21463;47.480;8.214;2023-11-19T05:27:44;21.00;45.50
35363;DHT22;21463;47.480;8.214;2023-11-19T05:28:48;21.00;45.50
35363;DHT22;21463;47.480;8.214;2023-11-19T05:29:55;21.10;45.50
35363;DHT22;21463;47.480;8.214;2023-11-19T05:31:17;21.10;45.60
35363;DHT22;21463;47.480;8.214;2023-11-19T05:32:23;21.00;45.50
35363;DHT22;21463;47.480;8.214;2023-11-19T05:33:32;21.00;45.50
35363;DHT22;21463;47.480;8.214;2023-11-19T05:34:38;21.00;45.50
35363;DHT22;21463;47.480;8.214;2023-11-19T05:35:54;21.10;45.50
35363;DHT22;21463;47.480;8.214;2023-11-19T05:37:00;21.00;45.50
35363;DHT22;21463;47.480;8.214;2023-11-19T05:38:07;21.00;45.50
35363;DHT22;21463;47.480;8.214;2023-11-19T05:39:11;21.00;45.50
35363;DHT22;21463;47.480;8.214;2023-11-19T05:40:16;21.00;45.50
35363;DHT22;21463;47.480;8.214;2023-11-19T05:41:21;21.00;45.50
35363;DHT22;21463;47.480;8.214;2023-11-19T05:42:25;21.00;45.50
35363;DHT22;21463;47.480;8.214;2023-11-19T05:43:33;21.00;45.60
35363;DHT22;21463;47.480;8.214;2023-11-19T05:44:38;21.10;45.60
35363;DHT22;21463;47.480;8.214;2023-11-19T05:45:43;21.00;45.50
35363;DHT22;21463;47.480;8.214;2023-11-19T05:46:50;21.00;45.50
35363;DHT22;21463;47.480;8.214;2023-11-19T05:47:53;21.00;45.50
35363;DHT22;21463;47.480;8.214;2023-11-19T05:48:58;21.00;45.60
35363;DHT22;21463;47.480;8.214;2023-11-19T05:50:01;21.00;45.60
35363;DHT22;21463;47.480;8.214;2023-11-19T05:51:05;21.10;45.60
35363;DHT22;21463;47.480;8.214;2023-11-19T05:52:08;21.00;45.60
35363;DHT22;21463;47.480;8.214;2023-11-19T05:53:13;21.10;45.60
35363;DHT22;21463;47.480;8.214;2023-11-19T05:54:33;21.00;45.60
35363;DHT22;21463;47.480;8.214;2023-11-19T05:55:50;21.00;45.60
35363;DHT22;21463;47.480;8.214;2023-11-19T05:57:02;21.00;45.60
35363;DHT22;21463;47.480;8.214;2023-11-19T05:58:08;21.00;45.60
35363;DHT22;21463;47.480;8.214;2023-11-19T05:59:15;21.00;45.60
35363;DHT22;21463;47.480;8.214;2023-11-19T06:00:20;21.10;45.60
35363;DHT22;21463;47.480;8.214;2023-11-19T06:01:27;21.00;45.60
35363;DHT22;21463;47.480;8.214;2023-11-19T06:02:32;21.00;45.60
35363;DHT22;21463;47.480;8.214;2023-11-19T06:03:39;21.00;45.60
35363;DHT22;21463;47.480;8.214;2023-11-19T06:04:48;21.00;45.60
35363;DHT22;21463;47.480;8.214;2023-11-19T06:06:10;21.00;45.60
35363;DHT22;21463;47.480;8.214;2023-11-19T06:07:18;21.00;45.60
35363;DHT22;21463;47.480;8.214;2023-11-19T06:08:22;21.00;45.60
35363;DHT22;21463;47.480;8.214;2023-11-19T06:09:38;21.00;45.70
35363;DHT22;21463;47.480;8.214;2023-11-19T06:10:45;21.10;45.70
35363;DHT22;21463;47.480;8.214;2023-11-19T06:11:55;21.00;45.60
35363;DHT22;21463;47.480;8.214;2023-11-19T06:13:03;21.00;45.70
35363;DHT22;21463;47.480;8.214;2023-11-19T06:14:14;21.00;45.70
35363;DHT22;21463;47.480;8.214;2023-11-19T06:15:19;20.60;45.50
35363;DHT22;21463;47.480;8.214;2023-11-19T06:16:24;21.00;45.70
35363;DHT22;21463;47.480;8.214;2023-11-19T06:17:28;21.00;45.60
35363;DHT22;21463;47.480;8.214;2023-11-19T06:18:30;21.00;45.70
35363;DHT22;21463;47.480;8.214;2023-11-19T06:19:34;21.00;45.70
35363;DHT22;21463;47.480;8.214;2023-11-19T06:20:38;21.00;45.70
35363;DHT22;21463;47.480;8.214;2023-11-19T06:21:50;21.00;45.70
35363;DHT22;21463;47.480;8.214;2023-11-19T06:22:54;21.00;45.70
35363;DHT22;21463;47.480;8.214;2023-11-19T06:23:59;21.00;45.70
35363;DHT22;21463;47.480;8.214;2023-11-19T06:25:02;21.10;45.70
35363;DHT22;21463;47.480;8.214;2023-11-19T06:26:14;20.90;45.60
35363;DHT22;21463;47.480;8.214;2023-11-19T06:27:19;21.00;45.70
35363;DHT22;21463;47.480;8.214;2023-11-19T06:28:22;21.10;45.80
35363;DHT22;21463;47.480;8.214;2023-11-19T06:29:26;21.00;45.70
35363;DHT22;21463;47.480;8.214;2023-11-19T06:30:30;21.00;45.70
35363;DHT22;21463;47.480;8.214;2023-11-19T06:31:40;21.00;45.70
35363;DHT22;21463;47.480;8.214;2023-11-19T06:32:45;21.00;45.80
35363;DHT22;21463;47.480;8.214;2023-11-19T06:33:48;21.00;45.80
35363;DHT22;21463;47.480;8.214;2023-11-19T06:34:55;21.10;45.80
35363;DHT22;21463;47.480;8.214;2023-11-19T06:36:00;21.00;45.70
35363;DHT22;21463;47.480;8.214;2023-11-19T06:37:04;21.00;45.70
35363;DHT22;21463;47.480;8.214;2023-11-19T06:38:11;21.10;45.80
35363;DHT22;21463;47.480;8.214;2023-11-19T06:39:17;21.00;45.80
35363;DHT22;21463;47.480;8.214;2023-11-19T06:40:21;20.90;45.70
35363;DHT22;21463;47.480;8.214;2023-11-19T06:41:29;21.00;45.80
35363;DHT22;21463;47.480;8.214;2023-11-19T06:42:45;21.00;45.80
35363;DHT22;21463;47.480;8.214;2023-11-19T06:43:51;21.00;45.80
35363;DHT22;21463;47.480;8.214;2023-11-19T06:44:56;21.00;45.80
35363;DHT22;21463;47.480;8.214;2023-11-19T06:46:18;21.10;45.80
35363;DHT22;21463;47.480;8.214;2023-11-19T06:47:28;21.00;45.80
35363;DHT22;21463;47.480;8.214;2023-11-19T06:48:33;21.00;45.80
35363;DHT22;21463;47.480;8.214;2023-11-19T06:49:39;20.80;45.70
35363;DHT22;21463;47.480;8.214;2023-11-19T06:50:44;21.00;45.90
35363;DHT22;21463;47.480;8.214;2023-11-19T06:51:54;21.00;45.80
35363;DHT22;21463;47.480;8.214;2023-11-19T06:53:06;21.00;45.90
35363;DHT22;21463;47.480;8.214;2023-11-19T06:54:25;21.10;45.90
35363;DHT22;21463;47.480;8.214;2023-11-19T06:55:32;21.00;45.90
35363;DHT22;21463;47.480;8.214;2023-11-19T06:56:37;21.00;45.80
35363;DHT22;21463;47.480;8.214;2023-11-19T06:57:42;21.00;45.90
35363;DHT22;21463;47.480;8.214;2023-11-19T06:58:54;21.00;45.90
35363;DHT22;21463;47.480;8.214;2023-11-19T07:00:08;21.00;45.90
35363;DHT22;21463;47.480;8.214;2023-11-19T07:01:18;21.00;45.90
35363;DHT22;21463;47.480;8.214;2023-11-19T07:02:34;21.00;45.90
35363;DHT22;21463;47.480;8.214;2023-11-19T07:03:41;21.00;45.90
35363;DHT22;21463;47.480;8.214;2023-11-19T07:04:50;21.00;45.90
35363;DHT22;21463;47.480;8.214;2023-11-19T07:05:57;21.00;45.90
35363;DHT22;21463;47.480;8.214;2023-11-19T07:07:02;21.00;45.90
35363;DHT22;21463;47.480;8.214;2023-11-19T07:08:07;21.10;46.00
35363;DHT22;21463;47.480;8.214;2023-11-19T07:09:10;21.10;46.00